East Troy, Wisconsin
Current Conditions -  °F | °C
As of 4:35 AM on Thursday 27 Nov 2014 (Local Time) from KBUU Reporting Station
Overcast Overcast  
Wind Chill:   Ceiling: 5500
Heat Index: 20°   Visibility: 7mi
Dew Point: 18°   Wind: 13mph
Humidity: 90%   Direction: 330°NNW
Pressure: 30.23"   Gusts: NA
Location:  42.79°N, 88.41°W
Report Text: KBUU 271035Z AUTO 33011KT 7SM BKN055 OVC110 M07/M08 A3023 RMK AO2 T10661080
Loading
Personal Weather Stations






























Interactive Weather Map New forecast layout! Learn more

10-Day Weather Forecast

Advertisements
Track Severe Weather on mobile